sensor_id;sensor_type;location;lat;lon;timestamp;temperature;humidity
59977;DHT22;45837;51.076;3.578;2024-03-23T00:53:24;20.50;59.30
59977;DHT22;45837;51.076;3.578;2024-03-23T00:55:49;20.50;59.40
59977;DHT22;45837;51.076;3.578;2024-03-23T00:58:16;20.50;59.40
59977;DHT22;45837;51.076;3.578;2024-03-23T01:00:41;20.40;59.20
59977;DHT22;45837;51.076;3.578;2024-03-23T01:03:07;20.50;59.40
59977;DHT22;45837;51.076;3.578;2024-03-23T01:05:33;20.40;59.40
59977;DHT22;45837;51.076;3.578;2024-03-23T01:07:58;20.40;59.50
59977;DHT22;45837;51.076;3.578;2024-03-23T01:10:24;20.40;59.50
59977;DHT22;45837;51.076;3.578;2024-03-23T01:12:49;20.40;59.40
59977;DHT22;45837;51.076;3.578;2024-03-23T01:15:15;20.40;59.40
59977;DHT22;45837;51.076;3.578;2024-03-23T01:17:41;20.40;59.30
59977;DHT22;45837;51.076;3.578;2024-03-23T01:20:06;20.40;59.40
59977;DHT22;45837;51.076;3.578;2024-03-23T01:22:32;20.40;59.30
59977;DHT22;45837;51.076;3.578;2024-03-23T01:24:58;20.40;59.30
59977;DHT22;45837;51.076;3.578;2024-03-23T01:27:24;20.40;59.30
59977;DHT22;45837;51.076;3.578;2024-03-23T01:29:50;20.30;59.30
59977;DHT22;45837;51.076;3.578;2024-03-23T01:32:18;20.30;59.20
59977;DHT22;45837;51.076;3.578;2024-03-23T01:34:44;20.30;59.20
59977;DHT22;45837;51.076;3.578;2024-03-23T01:37:10;20.30;59.20
59977;DHT22;45837;51.076;3.578;2024-03-23T01:39:36;20.40;59.30
59977;DHT22;45837;51.076;3.578;2024-03-23T01:42:01;20.30;59.30
59977;DHT22;45837;51.076;3.578;2024-03-23T01:44:28;20.30;59.20
59977;DHT22;45837;51.076;3.578;2024-03-23T01:46:53;20.30;59.20
59977;DHT22;45837;51.076;3.578;2024-03-23T01:49:19;20.30;59.20
59977;DHT22;45837;51.076;3.578;2024-03-23T01:51:44;20.30;59.30
59977;DHT22;45837;51.076;3.578;2024-03-23T01:54:11;20.30;59.10
59977;DHT22;45837;51.076;3.578;2024-03-23T01:56:37;20.30;59.00
59977;DHT22;45837;51.076;3.578;2024-03-23T01:59:03;20.30;59.10
59977;DHT22;45837;51.076;3.578;2024-03-23T02:01:29;20.30;59.00
59977;DHT22;45837;51.076;3.578;2024-03-23T02:03:55;20.30;59.10
59977;DHT22;45837;51.076;3.578;2024-03-23T02:06:21;20.20;59.10
59977;DHT22;45837;51.076;3.578;2024-03-23T02:08:47;20.30;59.10
59977;DHT22;45837;51.076;3.578;2024-03-23T02:11:14;20.20;58.90
59977;DHT22;45837;51.076;3.578;2024-03-23T02:13:39;20.30;58.90
59977;DHT22;45837;51.076;3.578;2024-03-23T02:16:05;20.30;59.10
59977;DHT22;45837;51.076;3.578;2024-03-23T02:18:31;20.30;59.00
59977;DHT22;45837;51.076;3.578;2024-03-23T02:20:57;20.20;58.90
59977;DHT22;45837;51.076;3.578;2024-03-23T02:23:22;20.30;59.00
59977;DHT22;45837;51.076;3.578;2024-03-23T02:25:50;20.20;58.90
59977;DHT22;45837;51.076;3.578;2024-03-23T02:28:15;20.20;59.00
59977;DHT22;45837;51.076;3.578;2024-03-23T02:30:42;20.20;58.90
59977;DHT22;45837;51.076;3.578;2024-03-23T02:33:08;20.20;58.80
59977;DHT22;45837;51.076;3.578;2024-03-23T02:35:34;20.20;59.00
59977;DHT22;45837;51.076;3.578;2024-03-23T02:37:59;20.20;59.00
59977;DHT22;45837;51.076;3.578;2024-03-23T02:40:25;20.20;59.00
59977;DHT22;45837;51.076;3.578;2024-03-23T02:42:51;20.20;59.00
59977;DHT22;45837;51.076;3.578;2024-03-23T02:45:17;20.20;58.80
59977;DHT22;45837;51.076;3.578;2024-03-23T02:47:43;20.20;58.90
59977;DHT22;45837;51.076;3.578;2024-03-23T02:50:09;20.20;59.00
59977;DHT22;45837;51.076;3.578;2024-03-23T02:52:35;20.20;59.00
59977;DHT22;45837;51.076;3.578;2024-03-23T02:55:00;20.20;58.90
59977;DHT22;45837;51.076;3.578;2024-03-23T02:57:27;20.20;58.90
59977;DHT22;45837;51.076;3.578;2024-03-23T02:59:53;20.10;58.90
59977;DHT22;45837;51.076;3.578;2024-03-23T03:02:19;20.10;58.90
59977;DHT22;45837;51.076;3.578;2024-03-23T03:04:45;20.10;58.70
59977;DHT22;45837;51.076;3.578;2024-03-23T03:07:11;20.10;58.90
59977;DHT22;45837;51.076;3.578;2024-03-23T03:09:36;20.10;58.90
59977;DHT22;45837;51.076;3.578;2024-03-23T03:12:07;20.10;58.70
59977;DHT22;45837;51.076;3.578;2024-03-23T03:14:36;20.10;58.60
59977;DHT22;45837;51.076;3.578;2024-03-23T03:17:02;20.10;58.60
59977;DHT22;45837;51.076;3.578;2024-03-23T03:19:27;18.90;58.10
59977;DHT22;45837;51.076;3.578;2024-03-23T03:21:53;20.10;58.70
59977;DHT22;45837;51.076;3.578;2024-03-23T03:24:19;20.10;58.70
59977;DHT22;45837;51.076;3.578;2024-03-23T03:26:44;20.10;58.70
59977;DHT22;45837;51.076;3.578;2024-03-23T03:29:10;20.10;58.70
59977;DHT22;45837;51.076;3.578;2024-03-23T03:31:37;20.10;58.60
59977;DHT22;45837;51.076;3.578;2024-03-23T03:34:03;20.10;58.60
59977;DHT22;45837;51.076;3.578;2024-03-23T03:36:28;20.10;58.90
59977;DHT22;45837;51.076;3.578;2024-03-23T03:38:54;20.10;58.80
59977;DHT22;45837;51.076;3.578;2024-03-23T03:41:20;20.00;58.60
59977;DHT22;45837;51.076;3.578;2024-03-23T03:43:45;20.00;58.60
59977;DHT22;45837;51.076;3.578;2024-03-23T03:46:11;20.00;58.80
59977;DHT22;45837;51.076;3.578;2024-03-23T03:48:37;20.00;58.70
59977;DHT22;45837;51.076;3.578;2024-03-23T03:51:03;20.00;58.50
59977;DHT22;45837;51.076;3.578;2024-03-23T03:53:30;20.00;58.50
59977;DHT22;45837;51.076;3.578;2024-03-23T03:55:56;20.00;58.40
59977;DHT22;45837;51.076;3.578;2024-03-23T03:58:22;20.00;58.50
59977;DHT22;45837;51.076;3.578;2024-03-23T04:00:48;20.00;58.70
59977;DHT22;45837;51.076;3.578;2024-03-23T04:03:13;20.00;58.70
59977;DHT22;45837;51.076;3.578;2024-03-23T04:05:39;20.00;58.60
59977;DHT22;45837;51.076;3.578;2024-03-23T04:08:07;19.90;58.60
59977;DHT22;45837;51.076;3.578;2024-03-23T04:10:33;19.90;58.40
59977;DHT22;45837;51.076;3.578;2024-03-23T04:12:59;20.00;58.60
59977;DHT22;45837;51.076;3.578;2024-03-23T04:15:24;19.90;58.50
59977;DHT22;45837;51.076;3.578;2024-03-23T04:17:50;19.90;58.50
59977;DHT22;45837;51.076;3.578;2024-03-23T04:20:16;20.00;58.50
59977;DHT22;45837;51.076;3.578;2024-03-23T04:22:42;19.90;58.30
59977;DHT22;45837;51.076;3.578;2024-03-23T04:25:08;19.90;58.30
59977;DHT22;45837;51.076;3.578;2024-03-23T04:27:36;20.00;58.30
59977;DHT22;45837;51.076;3.578;2024-03-23T04:30:02;19.90;58.30
59977;DHT22;45837;51.076;3.578;2024-03-23T04:32:29;19.90;58.30
59977;DHT22;45837;51.076;3.578;2024-03-23T04:34:55;19.90;58.40
59977;DHT22;45837;51.076;3.578;2024-03-23T04:37:21;19.90;58.30
59977;DHT22;45837;51.076;3.578;2024-03-23T04:39:47;19.90;58.30
59977;DHT22;45837;51.076;3.578;2024-03-23T04:42:14;19.90;58.30
59977;DHT22;45837;51.076;3.578;2024-03-23T04:44:40;19.90;58.30
59977;DHT22;45837;51.076;3.578;2024-03-23T04:47:06;19.90;58.40
59977;DHT22;45837;51.076;3.578;2024-03-23T04:49:32;20.10;58.60
59977;DHT22;45837;51.076;3.578;2024-03-23T04:51:58;19.90;58.30
59977;DHT22;45837;51.076;3.578;2024-03-23T04:54:24;19.90;58.40
59977;DHT22;45837;51.076;3.578;2024-03-23T04:56:51;19.90;58.30
59977;DHT22;45837;51.076;3.578;2024-03-23T04:59:16;19.90;58.30
59977;DHT22;45837;51.076;3.578;2024-03-23T05:01:42;19.90;58.30
59977;DHT22;45837;51.076;3.578;2024-03-23T05:04:08;19.80;58.10
59977;DHT22;45837;51.076;3.578;2024-03-23T05:06:34;19.80;58.00
59977;DHT22;45837;51.076;3.578;2024-03-23T05:09:00;19.80;58.10
59977;DHT22;45837;51.076;3.578;2024-03-23T05:11:31;19.80;58.10
59977;DHT22;45837;51.076;3.578;2024-03-23T05:13:57;19.80;58.10
59977;DHT22;45837;51.076;3.578;2024-03-23T05:16:22;19.80;58.10
59977;DHT22;45837;51.076;3.578;2024-03-23T05:18:48;19.80;58.10
59977;DHT22;45837;51.076;3.578;2024-03-23T05:21:14;19.80;58.10
59977;DHT22;45837;51.076;3.578;2024-03-23T05:23:39;19.80;58.20
59977;DHT22;45837;51.076;3.578;2024-03-23T05:26:05;19.80;58.00
59977;DHT22;45837;51.076;3.578;2024-03-23T05:28:31;19.80;58.10
59977;DHT22;45837;51.076;3.578;2024-03-23T05:30:57;19.80;58.20
59977;DHT22;45837;51.076;3.578;2024-03-23T05:33:22;19.80;58.20
59977;DHT22;45837;51.076;3.578;2024-03-23T05:35:56;19.80;58.00
59977;DHT22;45837;51.076;3.578;2024-03-23T05:38:22;19.80;57.90
59977;DHT22;45837;51.076;3.578;2024-03-23T05:40:54;19.80;58.00
59977;DHT22;45837;51.076;3.578;2024-03-23T05:43:20;19.80;57.80
59977;DHT22;45837;51.076;3.578;2024-03-23T05:45:46;19.80;57.90
59977;DHT22;45837;51.076;3.578;2024-03-23T05:48:12;19.80;57.80
59977;DHT22;45837;51.076;3.578;2024-03-23T05:50:38;19.80;57.90
59977;DHT22;45837;51.076;3.578;2024-03-23T05:53:04;19.80;58.00
59977;DHT22;45837;51.076;3.578;2024-03-23T05:55:30;19.70;57.80
59977;DHT22;45837;51.076;3.578;2024-03-23T05:57:56;19.70;58.00
59977;DHT22;45837;51.076;3.578;2024-03-23T06:00:21;19.80;57.90
59977;DHT22;45837;51.076;3.578;2024-03-23T06:02:47;19.70;57.80
59977;DHT22;45837;51.076;3.578;2024-03-23T06:05:13;19.70;57.80
59977;DHT22;45837;51.076;3.578;2024-03-23T06:07:38;19.70;57.70
59977;DHT22;45837;51.076;3.578;2024-03-23T06:10:04;19.70;57.60
59977;DHT22;45837;51.076;3.578;2024-03-23T06:12:31;19.70;57.20
59977;DHT22;45837;51.076;3.578;2024-03-23T06:14:57;19.70;57.30
59977;DHT22;45837;51.076;3.578;2024-03-23T06:17:22;19.70;57.40
59977;DHT22;45837;51.076;3.578;2024-03-23T06:19:48;19.70;57.40
59977;DHT22;45837;51.076;3.578;2024-03-23T06:22:14;19.70;57.10
59977;DHT22;45837;51.076;3.578;2024-03-23T06:24:40;19.60;56.80
59977;DHT22;45837;51.076;3.578;2024-03-23T06:27:06;19.70;57.00
59977;DHT22;45837;51.076;3.578;2024-03-23T06:29:31;19.60;56.90
59977;DHT22;45837;51.076;3.578;2024-03-23T06:31:57;19.60;56.80
59977;DHT22;45837;51.076;3.578;2024-03-23T06:34:23;19.70;56.70
59977;DHT22;45837;51.076;3.578;2024-03-23T06:36:49;19.70;56.70
59977;DHT22;45837;51.076;3.578;2024-03-23T06:39:15;19.60;56.60
59977;DHT22;45837;51.076;3.578;2024-03-23T06:41:42;19.70;56.50
59977;DHT22;45837;51.076;3.578;2024-03-23T06:44:07;19.60;56.30
59977;DHT22;45837;51.076;3.578;2024-03-23T06:46:33;19.70;56.40
59977;DHT22;45837;51.076;3.578;2024-03-23T06:48:59;19.70;56.60
59977;DHT22;45837;51.076;3.578;2024-03-23T06:51:25;19.80;56.80
59977;DHT22;45837;51.076;3.578;2024-03-23T06:53:50;19.80;57.20
59977;DHT22;45837;51.076;3.578;2024-03-23T06:56:16;19.90;57.50
59977;DHT22;45837;51.076;3.578;2024-03-23T06:58:41;19.90;57.70
59977;DHT22;45837;51.076;3.578;2024-03-23T07:01:07;20.00;57.80
59977;DHT22;45837;51.076;3.578;2024-03-23T07:03:33;20.10;57.90
59977;DHT22;45837;51.076;3.578;2024-03-23T07:05:58;20.20;58.10
59977;DHT22;45837;51.076;3.578;2024-03-23T07:08:24;20.20;58.20
59977;DHT22;45837;51.076;3.578;2024-03-23T07:10:50;20.30;58.10
59977;DHT22;45837;51.076;3.578;2024-03-23T07:13:15;20.40;58.30
59977;DHT22;45837;51.076;3.578;2024-03-23T07:15:42;20.40;58.20
59977;DHT22;45837;51.076;3.578;2024-03-23T07:18:08;20.60;58.50
59977;DHT22;45837;51.076;3.578;2024-03-23T07:20:34;20.70;58.40
59977;DHT22;45837;51.076;3.578;2024-03-23T07:23:01;20.70;58.30
59977;DHT22;45837;51.076;3.578;2024-03-23T07:25:27;20.80;57.80
59977;DHT22;45837;51.076;3.578;2024-03-23T07:27:54;20.90;57.60
59977;DHT22;45837;51.076;3.578;2024-03-23T07:30:20;20.90;57.50
59977;DHT22;45837;51.076;3.578;2024-03-23T07:32:45;20.90;57.30
59977;DHT22;45837;51.076;3.578;2024-03-23T07:35:11;21.00;57.20
59977;DHT22;45837;51.076;3.578;2024-03-23T07:37:37;21.00;57.30
59977;DHT22;45837;51.076;3.578;2024-03-23T07:40:02;21.00;57.30
59977;DHT22;45837;51.076;3.578;2024-03-23T07:42:29;21.00;57.40
59977;DHT22;45837;51.076;3.578;2024-03-23T07:44:54;21.00;57.50
59977;DHT22;45837;51.076;3.578;2024-03-23T07:47:22;21.10;57.40
59977;DHT22;45837;51.076;3.578;2024-03-23T07:49:48;21.10;57.40
59977;DHT22;45837;51.076;3.578;2024-03-23T07:52:14;21.20;57.40
59977;DHT22;45837;51.076;3.578;2024-03-23T07:54:39;21.20;57.40
59977;DHT22;45837;51.076;3.578;2024-03-23T07:57:05;21.20;57.30
59977;DHT22;45837;51.076;3.578;2024-03-23T07:59:32;21.20;57.20
59977;DHT22;45837;51.076;3.578;2024-03-23T08:01:59;21.30;57.20
59977;DHT22;45837;51.076;3.578;2024-03-23T08:04:25;21.30;57.40
59977;DHT22;45837;51.076;3.578;2024-03-23T08:06:51;21.30;57.60
59977;DHT22;45837;51.076;3.578;2024-03-23T08:09:16;21.40;58.10
59977;DHT22;45837;51.076;3.578;2024-03-23T08:11:42;21.40;58.20
59977;DHT22;45837;51.076;3.578;2024-03-23T08:14:10;21.50;58.40
59977;DHT22;45837;51.076;3.578;2024-03-23T08:16:36;21.50;58.40
59977;DHT22;45837;51.076;3.578;2024-03-23T08:19:02;21.50;58.30
59977;DHT22;45837;51.076;3.578;2024-03-23T08:21:29;21.50;58.10
59977;DHT22;45837;51.076;3.578;2024-03-23T08:23:55;21.50;57.90
59977;DHT22;45837;51.076;3.578;2024-03-23T08:26:20;21.50;57.60
59977;DHT22;45837;51.076;3.578;2024-03-23T08:28:46;21.50;57.40
59977;DHT22;45837;51.076;3.578;2024-03-23T08:31:13;21.50;57.10
59977;DHT22;45837;51.076;3.578;2024-03-23T08:33:40;21.40;57.20
59977;DHT22;45837;51.076;3.578;2024-03-23T08:36:08;21.40;57.00
59977;DHT22;45837;51.076;3.578;2024-03-23T08:38:34;21.40;57.00
59977;DHT22;45837;51.076;3.578;2024-03-23T08:43:29;21.50;56.90
59977;DHT22;45837;51.076;3.578;2024-03-23T08:48:30;21.40;56.60
59977;DHT22;45837;51.076;3.578;2024-03-23T08:51:02;21.40;56.90
59977;DHT22;45837;51.076;3.578;2024-03-23T08:53:28;21.40;56.80
59977;DHT22;45837;51.076;3.578;2024-03-23T08:55:55;21.40;56.90
59977;DHT22;45837;51.076;3.578;2024-03-23T08:58:21;21.40;56.90
59977;DHT22;45837;51.076;3.578;2024-03-23T09:00:46;21.30;56.70
59977;DHT22;45837;51.076;3.578;2024-03-23T09:03:12;21.40;56.80
59977;DHT22;45837;51.076;3.578;2024-03-23T09:05:41;21.40;56.90
59977;DHT22;45837;51.076;3.578;2024-03-23T09:08:07;21.50;56.40
59977;DHT22;45837;51.076;3.578;2024-03-23T09:10:39;21.50;56.40
59977;DHT22;45837;51.076;3.578;2024-03-23T09:13:05;21.50;56.20
59977;DHT22;45837;51.076;3.578;2024-03-23T09:15:34;21.50;56.40
59977;DHT22;45837;51.076;3.578;2024-03-23T09:18:00;21.60;55.90
59977;DHT22;45837;51.076;3.578;2024-03-23T09:20:25;21.60;55.70
59977;DHT22;45837;51.076;3.578;2024-03-23T09:22:52;21.60;56.30
59977;DHT22;45837;51.076;3.578;2024-03-23T09:25:18;21.70;55.90
59977;DHT22;45837;51.076;3.578;2024-03-23T09:27:46;21.70;55.40
59977;DHT22;45837;51.076;3.578;2024-03-23T09:30:12;21.60;55.60
59977;DHT22;45837;51.076;3.578;2024-03-23T09:32:38;21.70;55.80
59977;DHT22;45837;51.076;3.578;2024-03-23T09:35:04;21.70;56.10
59977;DHT22;45837;51.076;3.578;2024-03-23T09:37:30;21.70;56.30
59977;DHT22;45837;51.076;3.578;2024-03-23T09:39:55;21.60;56.40
59977;DHT22;45837;51.076;3.578;2024-03-23T09:42:21;21.70;56.40
59977;DHT22;45837;51.076;3.578;2024-03-23T09:44:47;21.70;56.50
59977;DHT22;45837;51.076;3.578;2024-03-23T09:47:16;21.70;56.30
59977;DHT22;45837;51.076;3.578;2024-03-23T09:49:41;21.70;55.90
59977;DHT22;45837;51.076;3.578;2024-03-23T09:52:07;21.70;55.50
59977;DHT22;45837;51.076;3.578;2024-03-23T09:54:33;21.70;54.90
59977;DHT22;45837;51.076;3.578;2024-03-23T09:56:58;21.70;53.80
59977;DHT22;45837;51.076;3.578;2024-03-23T09:59:25;21.70;53.20
59977;DHT22;45837;51.076;3.578;2024-03-23T10:01:55;21.20;52.60
59977;DHT22;45837;51.076;3.578;2024-03-23T10:04:36;21.70;52.60
59977;DHT22;45837;51.076;3.578;2024-03-23T10:09:38;21.70;53.50
59977;DHT22;45837;51.076;3.578;2024-03-23T10:12:10;21.70;54.40
59977;DHT22;45837;51.076;3.578;2024-03-23T10:14:37;21.80;54.90
59977;DHT22;45837;51.076;3.578;2024-03-23T10:19:43;21.90;55.00
59977;DHT22;45837;51.076;3.578;2024-03-23T10:22:10;21.80;55.30
59977;DHT22;45837;51.076;3.578;2024-03-23T10:24:35;21.80;55.40
59977;DHT22;45837;51.076;3.578;2024-03-23T10:27:01;21.80;56.40
59977;DHT22;45837;51.076;3.578;2024-03-23T10:29:27;21.80;55.90
59977;DHT22;45837;51.076;3.578;2024-03-23T10:31:53;21.80;56.00
59977;DHT22;45837;51.076;3.578;2024-03-23T10:34:26;21.70;56.00
59977;DHT22;45837;51.076;3.578;2024-03-23T10:36:53;21.80;54.20
59977;DHT22;45837;51.076;3.578;2024-03-23T10:39:20;21.70;46.80
59977;DHT22;45837;51.076;3.578;2024-03-23T10:41:48;21.60;44.70
59977;DHT22;45837;51.076;3.578;2024-03-23T10:44:19;21.50;42.80
59977;DHT22;45837;51.076;3.578;2024-03-23T10:46:45;21.40;41.20
59977;DHT22;45837;51.076;3.578;2024-03-23T10:49:10;21.20;39.60
59977;DHT22;45837;51.076;3.578;2024-03-23T10:51:37;21.00;38.30
59977;DHT22;45837;51.076;3.578;2024-03-23T10:54:06;20.60;38.90
59977;DHT22;45837;51.076;3.578;2024-03-23T10:56:32;20.30;40.00
59977;DHT22;45837;51.076;3.578;2024-03-23T10:59:00;20.30;42.70
59977;DHT22;45837;51.076;3.578;2024-03-23T11:01:26;20.30;43.10
59977;DHT22;45837;51.076;3.578;2024-03-23T11:03:52;20.40;43.00
59977;DHT22;45837;51.076;3.578;2024-03-23T11:06:37;20.50;44.10
59977;DHT22;45837;51.076;3.578;2024-03-23T11:09:02;20.60;44.50
59977;DHT22;45837;51.076;3.578;2024-03-23T11:11:28;20.80;44.90
59977;DHT22;45837;51.076;3.578;2024-03-23T11:13:57;20.90;45.10
59977;DHT22;45837;51.076;3.578;2024-03-23T11:16:23;20.90;44.10
59977;DHT22;45837;51.076;3.578;2024-03-23T11:18:49;20.90;44.70
59977;DHT22;45837;51.076;3.578;2024-03-23T11:24:13;21.00;43.60
59977;DHT22;45837;51.076;3.578;2024-03-23T11:26:38;20.90;43.10
59977;DHT22;45837;51.076;3.578;2024-03-23T11:29:11;21.00;44.40
59977;DHT22;45837;51.076;3.578;2024-03-23T11:31:37;21.10;42.90
59977;DHT22;45837;51.076;3.578;2024-03-23T11:34:06;21.10;43.00
59977;DHT22;45837;51.076;3.578;2024-03-23T11:36:32;21.10;43.10
59977;DHT22;45837;51.076;3.578;2024-03-23T11:38:58;21.10;42.40
59977;DHT22;45837;51.076;3.578;2024-03-23T11:41:23;21.10;42.10
59977;DHT22;45837;51.076;3.578;2024-03-23T11:43:50;21.00;42.30
59977;DHT22;45837;51.076;3.578;2024-03-23T11:46:22;21.00;43.00
59977;DHT22;45837;51.076;3.578;2024-03-23T11:48:51;21.00;43.70
59977;DHT22;45837;51.076;3.578;2024-03-23T11:51:17;21.20;43.40
59977;DHT22;45837;51.076;3.578;2024-03-23T11:53:42;21.20;44.10
59977;DHT22;45837;51.076;3.578;2024-03-23T11:56:08;21.10;43.50
59977;DHT22;45837;51.076;3.578;2024-03-23T11:58:34;21.10;44.00
59977;DHT22;45837;51.076;3.578;2024-03-23T12:01:01;21.10;44.10
59977;DHT22;45837;51.076;3.578;2024-03-23T12:03:28;21.10;43.20
59977;DHT22;45837;51.076;3.578;2024-03-23T12:06:00;21.20;43.70
59977;DHT22;45837;51.076;3.578;2024-03-23T12:08:33;21.20;42.80
59977;DHT22;45837;51.076;3.578;2024-03-23T12:11:09;21.20;42.70
59977;DHT22;45837;51.076;3.578;2024-03-23T12:13:36;21.20;42.40
59977;DHT22;45837;51.076;3.578;2024-03-23T12:18:40;21.20;41.40
59977;DHT22;45837;51.076;3.578;2024-03-23T12:21:06;21.20;41.60
59977;DHT22;45837;51.076;3.578;2024-03-23T12:23:32;21.10;41.50
59977;DHT22;45837;51.076;3.578;2024-03-23T12:25:58;21.10;41.30
59977;DHT22;45837;51.076;3.578;2024-03-23T12:28:24;21.00;40.60
59977;DHT22;45837;51.076;3.578;2024-03-23T12:30:51;21.00;41.20
59977;DHT22;45837;51.076;3.578;2024-03-23T12:33:17;20.90;41.10
59977;DHT22;45837;51.076;3.578;2024-03-23T12:35:43;21.00;40.60
59977;DHT22;45837;51.076;3.578;2024-03-23T12:38:09;20.90;41.10
59977;DHT22;45837;51.076;3.578;2024-03-23T12:40:34;20.90;40.80
59977;DHT22;45837;51.076;3.578;2024-03-23T12:43:00;20.90;40.70
59977;DHT22;45837;51.076;3.578;2024-03-23T12:45:26;20.80;41.80
59977;DHT22;45837;51.076;3.578;2024-03-23T12:47:52;20.90;41.60
59977;DHT22;45837;51.076;3.578;2024-03-23T12:50:19;20.90;41.10
59977;DHT22;45837;51.076;3.578;2024-03-23T12:52:45;20.90;41.60
59977;DHT22;45837;51.076;3.578;2024-03-23T12:55:10;20.90;40.90
59977;DHT22;45837;51.076;3.578;2024-03-23T12:57:36;21.00;41.00
59977;DHT22;45837;51.076;3.578;2024-03-23T13:00:02;21.00;40.90
59977;DHT22;45837;51.076;3.578;2024-03-23T13:02:29;21.00;41.20
59977;DHT22;45837;51.076;3.578;2024-03-23T13:04:57;21.00;41.40
59977;DHT22;45837;51.076;3.578;2024-03-23T13:07:23;21.00;41.40
59977;DHT22;45837;51.076;3.578;2024-03-23T13:09:52;21.00;41.60
59977;DHT22;45837;51.076;3.578;2024-03-23T13:12:19;21.00;41.60
59977;DHT22;45837;51.076;3.578;2024-03-23T13:14:45;21.00;41.70
59977;DHT22;45837;51.076;3.578;2024-03-23T13:17:10;21.10;41.50
59977;DHT22;45837;51.076;3.578;2024-03-23T13:19:36;21.20;41.70
59977;DHT22;45837;51.076;3.578;2024-03-23T13:22:03;21.20;41.50
59977;DHT22;45837;51.076;3.578;2024-03-23T13:24:30;21.20;40.80
59977;DHT22;45837;51.076;3.578;2024-03-23T13:26:56;21.20;39.50
59977;DHT22;45837;51.076;3.578;2024-03-23T13:29:22;21.10;38.80
59977;DHT22;45837;51.076;3.578;2024-03-23T13:31:48;21.10;40.30
59977;DHT22;45837;51.076;3.578;2024-03-23T13:34:14;21.00;38.70
59977;DHT22;45837;51.076;3.578;2024-03-23T13:36:41;20.90;40.30
59977;DHT22;45837;51.076;3.578;2024-03-23T13:39:07;20.90;39.40
59977;DHT22;45837;51.076;3.578;2024-03-23T13:41:39;20.90;39.70
59977;DHT22;45837;51.076;3.578;2024-03-23T13:44:06;20.90;40.40
59977;DHT22;45837;51.076;3.578;2024-03-23T13:46:32;20.80;40.50
59977;DHT22;45837;51.076;3.578;2024-03-23T13:48:57;20.90;41.20
59977;DHT22;45837;51.076;3.578;2024-03-23T13:51:24;20.90;40.30
59977;DHT22;45837;51.076;3.578;2024-03-23T13:53:53;20.90;41.10
59977;DHT22;45837;51.076;3.578;2024-03-23T13:56:19;21.00;40.20
59977;DHT22;45837;51.076;3.578;2024-03-23T13:58:45;21.00;40.50
59977;DHT22;45837;51.076;3.578;2024-03-23T14:01:15;21.00;40.60
59977;DHT22;45837;51.076;3.578;2024-03-23T14:03:41;21.00;40.70
59977;DHT22;45837;51.076;3.578;2024-03-23T14:06:07;21.00;40.60
59977;DHT22;45837;51.076;3.578;2024-03-23T14:08:33;21.10;40.80
59977;DHT22;45837;51.076;3.578;2024-03-23T14:11:02;21.10;40.30
59977;DHT22;45837;51.076;3.578;2024-03-23T14:13:28;21.10;40.40
59977;DHT22;45837;51.076;3.578;2024-03-23T14:15:54;21.00;40.50
59977;DHT22;45837;51.076;3.578;2024-03-23T14:18:20;21.00;41.10
59977;DHT22;45837;51.076;3.578;2024-03-23T14:20:48;21.00;40.60
59977;DHT22;45837;51.076;3.578;2024-03-23T14:23:13;21.00;40.70
59977;DHT22;45837;51.076;3.578;2024-03-23T14:25:39;21.00;41.10
59977;DHT22;45837;51.076;3.578;2024-03-23T14:28:05;21.00;41.50
59977;DHT22;45837;51.076;3.578;2024-03-23T14:30:30;21.00;41.10
59977;DHT22;45837;51.076;3.578;2024-03-23T14:32:57;21.10;39.90
59977;DHT22;45837;51.076;3.578;2024-03-23T14:35:22;21.00;40.60
59977;DHT22;45837;51.076;3.578;2024-03-23T14:37:49;21.10;41.00
59977;DHT22;45837;51.076;3.578;2024-03-23T14:40:14;21.00;40.90
59977;DHT22;45837;51.076;3.578;2024-03-23T14:42:41;21.00;40.80
59977;DHT22;45837;51.076;3.578;2024-03-23T14:45:07;21.00;40.60
59977;DHT22;45837;51.076;3.578;2024-03-23T14:47:33;21.10;40.70
59977;DHT22;45837;51.076;3.578;2024-03-23T14:49:58;21.10;40.00
59977;DHT22;45837;51.076;3.578;2024-03-23T14:52:24;21.00;40.20
59977;DHT22;45837;51.076;3.578;2024-03-23T14:54:50;21.00;40.10
59977;DHT22;45837;51.076;3.578;2024-03-23T14:57:15;21.00;40.30
59977;DHT22;45837;51.076;3.578;2024-03-23T14:59:41;21.00;40.50
59977;DHT22;45837;51.076;3.578;2024-03-23T15:02:07;21.00;40.60
59977;DHT22;45837;51.076;3.578;2024-03-23T15:04:33;21.00;40.60
59977;DHT22;45837;51.076;3.578;2024-03-23T15:06:59;21.00;40.70
59977;DHT22;45837;51.076;3.578;2024-03-23T15:09:24;21.00;41.30
59977;DHT22;45837;51.076;3.578;2024-03-23T15:11:50;21.00;41.40
59977;DHT22;45837;51.076;3.578;2024-03-23T15:14:15;21.00;41.00
59977;DHT22;45837;51.076;3.578;2024-03-23T15:16:41;21.00;41.40
59977;DHT22;45837;51.076;3.578;2024-03-23T15:19:10;21.00;41.30
59977;DHT22;45837;51.076;3.578;2024-03-23T15:21:35;21.10;41.40
59977;DHT22;45837;51.076;3.578;2024-03-23T15:24:01;21.10;41.40
59977;DHT22;45837;51.076;3.578;2024-03-23T15:26:26;21.10;41.30
59977;DHT22;45837;51.076;3.578;2024-03-23T15:28:52;21.20;42.20
59977;DHT22;45837;51.076;3.578;2024-03-23T15:31:24;21.20;42.50
59977;DHT22;45837;51.076;3.578;2024-03-23T15:33:50;21.20;43.10
59977;DHT22;45837;51.076;3.578;2024-03-23T15:36:16;21.20;43.60
59977;DHT22;45837;51.076;3.578;2024-03-23T15:38:41;21.20;44.00
59977;DHT22;45837;51.076;3.578;2024-03-23T15:41:08;21.30;44.80
59977;DHT22;45837;51.076;3.578;2024-03-23T15:43:34;21.30;44.70
59977;DHT22;45837;51.076;3.578;2024-03-23T15:46:00;21.30;45.00
59977;DHT22;45837;51.076;3.578;2024-03-23T15:48:29;21.30;45.00
59977;DHT22;45837;51.076;3.578;2024-03-23T15:51:04;21.30;45.00
59977;DHT22;45837;51.076;3.578;2024-03-23T15:53:30;21.30;45.20
59977;DHT22;45837;51.076;3.578;2024-03-23T15:56:02;21.30;45.60
59977;DHT22;45837;51.076;3.578;2024-03-23T15:58:29;21.30;45.50
59977;DHT22;45837;51.076;3.578;2024-03-23T16:03:21;21.30;45.90
59977;DHT22;45837;51.076;3.578;2024-03-23T16:05:54;21.30;46.00
59977;DHT22;45837;51.076;3.578;2024-03-23T16:08:20;21.30;46.00
59977;DHT22;45837;51.076;3.578;2024-03-23T16:10:45;21.40;46.30
59977;DHT22;45837;51.076;3.578;2024-03-23T16:13:11;21.30;46.40
59977;DHT22;45837;51.076;3.578;2024-03-23T16:15:37;21.30;46.70
59977;DHT22;45837;51.076;3.578;2024-03-23T16:18:03;21.40;46.80
59977;DHT22;45837;51.076;3.578;2024-03-23T16:20:28;21.30;46.90
59977;DHT22;45837;51.076;3.578;2024-03-23T16:22:54;21.30;47.10
59977;DHT22;45837;51.076;3.578;2024-03-23T16:25:21;21.40;46.60
59977;DHT22;45837;51.076;3.578;2024-03-23T16:27:46;21.30;46.60
59977;DHT22;45837;51.076;3.578;2024-03-23T16:30:13;21.30;47.30
59977;DHT22;45837;51.076;3.578;2024-03-23T16:32:38;21.30;46.90
59977;DHT22;45837;51.076;3.578;2024-03-23T16:35:05;21.40;47.20